createdAt,value
2022-08-02T04:45:07.573Z,17.00
2022-08-02T04:50:10.101Z,16.90
2022-08-02T04:55:11.913Z,16.90
2022-08-02T05:34:25.850Z,16.90
2022-08-02T05:39:31.971Z,16.90
2022-08-02T05:44:33.962Z,17.00
2022-08-02T05:49:36.517Z,17.10
2022-08-02T05:55:02.216Z,17.10
2022-08-02T06:00:11.755Z,17.20
2022-08-02T06:05:29.879Z,17.30
2022-08-02T06:10:33.507Z,17.40
2022-08-02T06:22:34.142Z,17.60
2022-08-02T06:26:38.793Z,17.70
2022-08-02T06:38:04.335Z,18.00
2022-08-02T06:50:54.243Z,18.40
2022-08-02T06:55:56.440Z,18.60
2022-08-02T07:00:58.458Z,18.80
2022-08-02T07:06:00.947Z,19.00
2022-08-02T07:11:04.009Z,19.20
2022-08-02T07:16:08.063Z,19.30
2022-08-02T07:21:12.822Z,19.50
2022-08-02T07:26:14.885Z,19.70
2022-08-02T07:31:16.852Z,19.90
2022-08-02T07:36:22.395Z,20.10
2022-08-02T07:41:24.998Z,20.30
2022-08-02T07:46:27.047Z,20.50
2022-08-02T07:51:31.686Z,20.70
2022-08-02T07:56:33.607Z,20.90
2022-08-02T08:01:35.797Z,21.10
2022-08-02T08:06:42.462Z,21.30
2022-08-02T08:11:44.452Z,21.40
2022-08-02T08:16:46.387Z,21.60
2022-08-02T08:21:48.324Z,21.80
2022-08-02T08:26:50.263Z,22.00
2022-08-02T08:31:53.398Z,22.10
2022-08-02T08:36:55.407Z,22.30
2022-08-02T08:41:57.618Z,22.40
2022-08-02T08:47:03.366Z,22.50
2022-08-02T08:52:07.378Z,22.60
2022-08-02T08:57:21.966Z,22.70
2022-08-02T09:02:28.135Z,22.80
2022-08-02T09:07:30.543Z,22.90
2022-08-02T09:12:32.440Z,23.10
2022-08-02T09:17:34.641Z,23.30
2022-08-02T09:22:36.727Z,23.40
2022-08-02T09:27:40.097Z,23.50
2022-08-02T09:32:47.047Z,23.60
2022-08-02T09:37:49.782Z,23.80
2022-08-02T09:43:00.845Z,23.90
2022-08-02T09:48:12.450Z,24.00
2022-08-02T09:53:14.398Z,24.20
2022-08-02T09:58:22.513Z,24.30
2022-08-02T10:03:33.968Z,24.50
2022-08-02T10:08:39.456Z,24.60
2022-08-02T10:13:42.101Z,24.80
2022-08-02T10:18:44.337Z,25.10
2022-08-02T10:23:49.596Z,25.20
2022-08-02T10:28:52.975Z,25.50
2022-08-02T10:33:59.082Z,25.60
2022-08-02T10:39:02.523Z,25.80
2022-08-02T10:44:04.778Z,25.90
2022-08-02T10:49:29.757Z,26.10
2022-08-02T10:55:14.799Z,26.20
2022-08-02T11:00:24.204Z,26.50
2022-08-02T11:05:42.610Z,26.80
2022-08-02T11:10:45.950Z,27.20
2022-08-02T11:16:10.993Z,27.50
2022-08-02T11:21:29.200Z,27.60
2022-08-02T11:26:31.131Z,27.60
2022-08-02T11:31:43.166Z,27.50
2022-08-02T11:36:48.009Z,27.50
2022-08-02T11:41:57.363Z,27.90
2022-08-02T11:47:03.810Z,28.30
2022-08-02T11:52:08.177Z,28.50
2022-08-02T11:57:20.136Z,28.80
2022-08-02T12:02:28.907Z,29.00
2022-08-02T12:07:37.617Z,29.10
2022-08-02T12:13:00.013Z,29.40
2022-08-02T12:18:21.248Z,29.60
2022-08-02T12:23:24.167Z,29.60
2022-08-02T12:28:26.850Z,29.40
2022-08-02T12:33:54.376Z,29.50
2022-08-02T12:39:03.421Z,29.70
2022-08-02T12:44:05.580Z,29.80
2022-08-02T12:49:19.778Z,30.10
2022-08-02T12:54:40.010Z,30.50
2022-08-02T12:59:45.165Z,30.70
2022-08-02T13:04:49.755Z,30.90
2022-08-02T13:10:02.500Z,31.10
2022-08-02T13:15:12.375Z,30.90
2022-08-02T13:20:29.938Z,31.00
2022-08-02T13:25:31.934Z,31.20
2022-08-02T13:30:34.110Z,31.30
2022-08-02T13:35:36.046Z,31.50
2022-08-02T13:41:04.247Z,31.50
2022-08-02T13:46:06.954Z,31.40
2022-08-02T13:51:12.042Z,31.60
2022-08-02T13:56:17.026Z,31.80
2022-08-02T14:01:19.353Z,31.90
2022-08-02T14:06:24.395Z,32.00
2022-08-02T14:11:26.346Z,31.80
2022-08-02T14:16:33.025Z,31.80
2022-08-02T14:21:46.383Z,32.00
2022-08-02T14:26:51.080Z,31.90
2022-08-02T14:31:53.045Z,32.00
2022-08-02T14:36:56.915Z,32.10
2022-08-02T14:42:00.857Z,32.20
2022-08-02T14:47:03.125Z,32.40
2022-08-02T14:52:05.474Z,32.50
2022-08-02T14:57:07.734Z,32.60
2022-08-02T15:02:13.069Z,32.70
2022-08-02T15:07:15.737Z,32.80
2022-08-02T15:12:18.409Z,32.60
2022-08-02T15:17:20.525Z,32.50
2022-08-02T15:22:22.662Z,32.40
2022-08-02T15:27:25.029Z,32.40
2022-08-02T15:32:27.300Z,32.30
2022-08-02T15:37:30.840Z,32.20
2022-08-02T15:42:33.148Z,32.00
2022-08-02T15:47:35.534Z,31.90
2022-08-02T15:52:37.612Z,31.80
2022-08-02T15:57:39.674Z,31.80
2022-08-02T16:02:43.282Z,31.70
2022-08-02T16:07:46.251Z,31.40
2022-08-02T16:12:48.277Z,31.10
2022-08-02T16:17:53.969Z,31.10
2022-08-02T16:22:56.788Z,31.20
2022-08-02T16:28:07.706Z,31.10
2022-08-02T16:33:10.299Z,31.10
2022-08-02T16:38:12.346Z,31.10
2022-08-02T16:43:14.280Z,30.90
2022-08-02T16:48:16.335Z,30.90
2022-08-02T16:53:36.748Z,30.90
2022-08-02T16:58:39.500Z,30.90
2022-08-02T17:03:56.863Z,30.90
2022-08-02T17:08:59.534Z,31.00
2022-08-02T17:14:01.512Z,30.80
2022-08-02T17:19:04.044Z,30.70
2022-08-02T17:24:08.636Z,30.60
2022-08-02T17:29:15.837Z,30.40
2022-08-02T17:34:26.905Z,30.20
2022-08-02T17:39:33.874Z,30.20
2022-08-02T17:44:39.240Z,30.10
2022-08-02T17:49:43.928Z,29.90
2022-08-02T17:54:51.008Z,29.90
2022-08-02T18:00:03.932Z,29.80
2022-08-02T18:05:11.844Z,29.80
2022-08-02T18:10:17.557Z,29.70
2022-08-02T18:15:20.557Z,29.50
2022-08-02T18:20:23.194Z,29.30
2022-08-02T18:25:36.929Z,29.10
2022-08-02T18:30:51.237Z,29.10
2022-08-02T18:35:55.319Z,29.00
2022-08-02T18:41:02.351Z,28.80
2022-08-02T18:51:36.751Z,28.50
2022-08-02T18:56:47.460Z,28.20
2022-08-02T19:01:52.804Z,28.10
2022-08-02T19:06:55.812Z,27.90
2022-08-02T19:11:58.007Z,27.70
2022-08-02T19:17:15.753Z,27.60
2022-08-02T19:22:23.781Z,27.40
2022-08-02T19:27:32.484Z,27.10
2022-08-02T19:32:39.974Z,26.80
2022-08-02T19:37:50.120Z,26.40
2022-08-02T19:44:20.956Z,26.20
2022-08-02T19:48:24.352Z,26.00
2022-08-02T19:53:29.245Z,25.80
2022-08-02T19:58:51.240Z,25.60
2022-08-02T22:58:59.905Z,28.60
